createdAt,value
2022-08-09T00:00:20.825Z,1.27
2022-08-09T00:02:49.348Z,1.70
2022-08-09T00:06:15.774Z,1.30
2022-08-09T00:08:09.855Z,1.33
2022-08-09T00:10:38.700Z,1.45
2022-08-09T00:13:17.669Z,1.27
2022-08-09T00:15:58.709Z,1.48
2022-08-09T00:18:35.681Z,1.60
2022-08-09T00:21:07.911Z,1.27
2022-08-09T00:23:55.530Z,1.38
2022-08-09T00:26:32.588Z,1.17
2022-08-09T00:29:02.154Z,1.15
2022-08-09T00:31:59.183Z,1.38
2022-08-09T00:34:19.132Z,1.48
2022-08-09T00:36:48.969Z,1.40
2022-08-09T00:40:09.429Z,1.20
2022-08-09T00:44:16.261Z,1.52
2022-08-09T00:44:51.732Z,1.42
2022-08-09T00:47:24.649Z,1.60
2022-08-09T00:49:54.998Z,1.30
2022-08-09T00:52:30.465Z,1.70
2022-08-09T00:55:02.085Z,1.42
2022-08-09T00:57:34.736Z,1.45
2022-08-09T01:00:21.460Z,1.45
2022-08-09T01:02:56.216Z,1.52
2022-08-09T01:05:51.854Z,1.50
2022-08-09T01:08:27.521Z,1.27
2022-08-09T01:11:28.214Z,1.40
2022-08-09T01:14:07.560Z,1.23
2022-08-09T01:16:47.346Z,1.27
2022-08-09T01:19:51.861Z,1.27
2022-08-09T01:22:51.259Z,1.20
2022-08-09T01:25:51.934Z,1.33
2022-08-09T01:28:22.416Z,1.35
2022-08-09T01:30:58.125Z,1.50
2022-08-09T01:33:32.614Z,1.10
2022-08-09T01:36:13.505Z,1.60
2022-08-09T01:41:27.966Z,1.05
2022-08-09T01:44:01.123Z,1.42
2022-08-09T01:46:42.780Z,1.50
2022-08-09T01:49:21.112Z,1.23
2022-08-09T01:51:56.090Z,1.63
2022-08-09T01:54:33.676Z,1.80
2022-08-09T01:57:08.080Z,1.60
2022-08-09T01:59:50.784Z,1.73
2022-08-09T02:02:30.099Z,1.63
2022-08-09T02:05:05.863Z,2.15
2022-08-09T02:08:40.764Z,2.30
2022-08-09T02:10:51.107Z,1.88
2022-08-09T02:13:25.910Z,1.70
2022-08-09T02:16:09.709Z,1.55
2022-08-09T02:18:43.076Z,1.48
2022-08-09T02:21:22.133Z,1.50
2022-08-09T02:24:00.039Z,1.70
2022-08-09T02:26:35.347Z,1.60
2022-08-09T02:29:27.283Z,1.55
2022-08-09T02:32:00.964Z,1.73
2022-08-09T02:34:40.441Z,1.40
2022-08-09T02:37:14.509Z,1.45
2022-08-09T02:39:55.295Z,1.52
2022-08-09T02:42:36.411Z,1.63
2022-08-09T02:45:15.164Z,1.55
2022-08-09T02:47:57.513Z,1.55
2022-08-09T02:50:36.311Z,1.42
2022-08-09T02:53:17.364Z,1.27
2022-08-09T02:55:58.914Z,1.38
2022-08-09T02:58:32.815Z,1.40
2022-08-09T03:01:07.997Z,1.55
2022-08-09T03:04:18.348Z,1.25
2022-08-09T03:06:27.876Z,1.40
2022-08-09T03:08:59.029Z,1.50
2022-08-09T03:12:04.428Z,1.20
2022-08-09T03:14:18.505Z,1.58
2022-08-09T03:16:48.035Z,1.38
2022-08-09T03:19:58.650Z,1.70
2022-08-09T03:22:12.152Z,1.60
2022-08-09T03:25:21.816Z,1.73
2022-08-09T03:27:47.117Z,1.55
2022-08-09T03:30:29.917Z,1.60
2022-08-09T03:33:12.725Z,1.58
2022-08-09T03:35:44.347Z,1.58
2022-08-09T03:38:30.392Z,1.90
2022-08-09T03:40:58.173Z,1.65
2022-08-09T03:43:28.842Z,1.75
2022-08-09T03:46:05.090Z,1.75
2022-08-09T03:48:52.969Z,1.60
2022-08-09T03:51:43.719Z,1.63
2022-08-09T03:54:12.122Z,1.70
2022-08-09T03:56:41.619Z,1.80
2022-08-09T03:59:21.079Z,1.88
2022-08-09T04:01:59.479Z,1.80
2022-08-09T04:04:32.627Z,1.77
2022-08-09T04:07:06.147Z,1.77
2022-08-09T04:09:44.362Z,1.95
2022-08-09T04:12:40.240Z,1.85
2022-08-09T04:15:11.492Z,2.15
2022-08-09T04:17:47.376Z,1.63
2022-08-09T04:20:15.595Z,1.63
2022-08-09T04:22:44.432Z,1.95
2022-08-09T04:25:12.913Z,2.40
2022-08-09T04:27:46.672Z,1.80
2022-08-09T04:30:20.975Z,1.77
2022-08-09T04:32:54.171Z,1.88
2022-08-09T04:35:21.816Z,1.80
2022-08-09T04:37:49.995Z,1.50
2022-08-09T04:40:19.054Z,1.85
2022-08-09T04:42:55.304Z,1.70
2022-08-09T04:45:23.914Z,1.77
2022-08-09T04:48:00.923Z,1.95
2022-08-09T04:50:34.811Z,1.85
2022-08-09T04:53:11.692Z,1.90
2022-08-09T04:55:57.735Z,2.13
2022-08-09T04:58:29.018Z,1.83
2022-08-09T05:00:59.861Z,1.38
2022-08-09T05:03:40.682Z,1.90
2022-08-09T05:06:25.803Z,1.88
2022-08-09T05:08:59.864Z,2.38
2022-08-09T05:11:35.401Z,2.30
2022-08-09T05:14:06.807Z,2.05
2022-08-09T05:19:24.418Z,1.88
2022-08-09T05:21:55.574Z,2.00
2022-08-09T05:24:24.649Z,2.08
2022-08-09T05:26:53.189Z,2.10
2022-08-09T05:29:23.883Z,2.28
2022-08-09T05:31:57.084Z,2.07
2022-08-09T05:34:30.749Z,2.15
2022-08-09T05:37:06.699Z,2.15
2022-08-09T05:39:42.884Z,1.65
2022-08-09T05:42:17.984Z,2.28
2022-08-09T05:45:01.111Z,2.03
2022-08-09T05:47:30.269Z,2.28
2022-08-09T05:50:23.498Z,2.20
2022-08-09T05:52:53.353Z,2.20
2022-08-09T05:55:24.061Z,1.70
2022-08-09T05:57:56.370Z,1.83
2022-08-09T06:00:29.802Z,1.65
2022-08-09T06:03:03.444Z,1.92
2022-08-09T06:05:58.216Z,1.90
2022-08-09T06:08:24.863Z,1.85
2022-08-09T06:10:58.312Z,1.88
2022-08-09T06:13:28.532Z,1.52
2022-08-09T06:16:04.974Z,1.88
2022-08-09T06:18:33.812Z,1.50
2022-08-09T06:21:01.903Z,1.92
2022-08-09T06:23:57.994Z,1.75
2022-08-09T06:26:22.425Z,1.83
2022-08-09T06:28:59.648Z,1.52
2022-08-09T06:31:31.600Z,1.50
2022-08-09T06:34:07.786Z,1.38
2022-08-09T06:36:36.328Z,1.60
2022-08-09T06:39:09.171Z,1.70
2022-08-09T06:41:40.572Z,1.80
2022-08-09T06:44:26.554Z,1.67
2022-08-09T06:46:55.214Z,1.60
2022-08-09T06:49:44.809Z,1.25
2022-08-09T06:52:12.084Z,1.90
2022-08-09T06:54:42.513Z,1.40
2022-08-09T06:57:12.100Z,1.75
2022-08-09T07:00:50.842Z,1.50
2022-08-09T07:02:30.861Z,1.40
2022-08-09T07:04:57.924Z,1.30
2022-08-09T07:07:59.878Z,1.48
2022-08-09T07:10:29.484Z,1.50
2022-08-09T07:12:59.845Z,1.10
2022-08-09T07:16:36.331Z,1.33
2022-08-09T07:18:15.069Z,1.17
2022-08-09T07:20:43.698Z,1.70
2022-08-09T07:23:18.920Z,1.02
2022-08-09T07:25:52.534Z,1.23
2022-08-09T07:28:31.107Z,1.35
2022-08-09T07:31:04.685Z,1.40
2022-08-09T07:33:52.888Z,1.13
2022-08-09T07:36:20.112Z,1.15
2022-08-09T07:38:56.783Z,1.33
2022-08-09T07:41:26.334Z,1.00
2022-08-09T07:43:55.873Z,0.98
2022-08-09T07:46:25.331Z,1.00
2022-08-09T07:49:00.209Z,1.35
2022-08-09T07:52:05.386Z,1.05
2022-08-09T07:54:27.649Z,1.10
2022-08-09T07:56:55.204Z,0.95
2022-08-09T07:59:33.569Z,0.90
2022-08-09T08:02:09.345Z,1.02
2022-08-09T08:04:36.645Z,0.90
2022-08-09T08:07:15.065Z,0.77
2022-08-09T08:09:55.199Z,1.02
2022-08-09T08:12:45.678Z,0.82
2022-08-09T08:15:18.152Z,1.00
2022-08-09T08:17:58.534Z,0.93
2022-08-09T08:20:32.871Z,0.90
2022-08-09T08:23:16.423Z,1.20
2022-08-09T08:25:48.302Z,0.98
2022-08-09T08:28:18.302Z,0.90
2022-08-09T08:30:53.040Z,0.90
2022-08-09T08:33:23.201Z,0.95
2022-08-09T08:35:59.031Z,0.77
2022-08-09T08:38:28.005Z,0.77
2022-08-09T08:40:57.195Z,0.93
2022-08-09T08:43:27.075Z,1.17
2022-08-09T08:46:32.054Z,0.90
2022-08-09T08:48:53.390Z,0.70
2022-08-09T08:51:25.067Z,0.70
2022-08-09T08:54:03.487Z,0.55
2022-08-09T08:56:35.711Z,0.65
2022-08-09T08:59:18.759Z,0.93
2022-08-09T09:01:53.220Z,0.38
2022-08-09T09:04:41.274Z,0.70
2022-08-09T09:07:17.060Z,0.43
2022-08-09T09:10:01.465Z,0.50
2022-08-09T09:12:34.386Z,0.77
2022-08-09T09:15:05.738Z,0.57
2022-08-09T09:17:49.619Z,0.63
2022-08-09T09:20:20.629Z,0.50
2022-08-09T09:23:01.737Z,0.50
2022-08-09T09:26:04.159Z,0.43
2022-08-09T09:29:02.311Z,0.65
2022-08-09T09:32:06.091Z,0.70
2022-08-09T09:34:15.279Z,0.50
2022-08-09T09:36:50.910Z,0.77
2022-08-09T09:39:50.490Z,0.52
2022-08-09T09:42:26.132Z,0.40
2022-08-09T09:45:08.330Z,0.50
2022-08-09T09:47:47.732Z,0.50
2022-08-09T09:50:42.141Z,0.60
2022-08-09T09:53:34.344Z,0.90
2022-08-09T09:56:30.976Z,0.50
2022-08-09T09:58:59.116Z,0.60
2022-08-09T10:01:31.229Z,0.60
2022-08-09T10:04:31.019Z,0.47
2022-08-09T10:06:58.886Z,0.90
2022-08-09T10:09:55.526Z,0.65
2022-08-09T10:12:32.496Z,0.60
2022-08-09T10:15:17.151Z,0.45
2022-08-09T10:17:56.684Z,0.50
2022-08-09T10:20:32.958Z,0.60
2022-08-09T10:23:23.617Z,0.60
2022-08-09T10:26:07.626Z,0.70
2022-08-09T10:28:40.416Z,0.60
2022-08-09T10:34:08.639Z,0.50
2022-08-09T10:36:39.820Z,0.77
2022-08-09T10:39:15.825Z,0.63
2022-08-09T10:41:47.716Z,0.47
2022-08-09T10:48:16.388Z,0.40
2022-08-09T10:50:51.776Z,0.55
2022-08-09T10:53:54.688Z,0.50
2022-08-09T10:56:25.482Z,0.45
2022-08-09T10:58:55.248Z,0.50
2022-08-09T11:03:11.676Z,0.50
2022-08-09T11:04:31.672Z,0.60
2022-08-09T11:06:59.985Z,0.40
2022-08-09T11:09:41.286Z,0.45
2022-08-09T11:12:26.643Z,0.40
2022-08-09T11:15:24.069Z,0.88
2022-08-09T11:18:02.700Z,0.70
2022-08-09T11:20:44.991Z,0.43
2022-08-09T11:23:13.648Z,0.40
2022-08-09T11:25:48.426Z,0.45
2022-08-09T11:28:34.362Z,0.60
2022-08-09T11:31:34.152Z,0.45
2022-08-09T11:34:16.662Z,0.50
2022-08-09T11:36:45.273Z,0.40
2022-08-09T11:39:12.215Z,0.40
2022-08-09T11:41:40.696Z,0.60
2022-08-09T11:44:08.632Z,0.70
2022-08-09T11:46:57.766Z,0.50
2022-08-09T11:50:55.585Z,0.60
2022-08-09T11:53:15.475Z,0.40
2022-08-09T11:55:53.505Z,0.50
2022-08-09T11:58:33.200Z,0.65
2022-08-09T12:01:37.532Z,0.60
2022-08-09T12:04:01.643Z,0.82
2022-08-09T12:06:32.532Z,0.68
2022-08-09T12:09:15.210Z,0.60
2022-08-09T12:12:02.336Z,0.70
2022-08-09T12:14:40.651Z,0.50
2022-08-09T12:17:28.246Z,0.63
2022-08-09T12:20:22.020Z,0.85
2022-08-09T12:23:02.918Z,0.52
2022-08-09T12:25:37.447Z,0.60
2022-08-09T12:29:13.812Z,0.50
2022-08-09T12:31:11.046Z,0.50
2022-08-09T12:33:58.457Z,0.55
2022-08-09T12:36:32.157Z,0.57
2022-08-09T12:39:01.609Z,0.60
2022-08-09T12:41:38.920Z,0.68
2022-08-09T12:44:10.355Z,0.88
2022-08-09T12:46:48.759Z,0.50
2022-08-09T12:49:16.967Z,0.60
2022-08-09T12:52:02.263Z,0.50
2022-08-09T12:56:12.333Z,0.40
2022-08-09T12:57:46.598Z,0.47
2022-08-09T13:00:18.807Z,0.73
2022-08-09T13:02:59.561Z,0.60
2022-08-09T13:05:52.328Z,0.52
2022-08-09T13:08:40.186Z,0.70
2022-08-09T13:11:13.371Z,0.50
2022-08-09T13:14:36.805Z,0.55
2022-08-09T13:17:16.007Z,0.60
2022-08-09T13:20:09.747Z,0.50
2022-08-09T13:23:00.993Z,0.60
2022-08-09T13:25:23.091Z,0.60
2022-08-09T13:27:55.678Z,0.60
2022-08-09T13:30:51.115Z,0.50
2022-08-09T13:33:22.626Z,0.82
2022-08-09T13:36:37.504Z,0.50
2022-08-09T13:38:57.277Z,0.55
2022-08-09T13:41:59.017Z,0.60
2022-08-09T13:44:13.785Z,0.47
2022-08-09T13:47:29.234Z,0.50
2022-08-09T13:49:39.513Z,0.57
2022-08-09T13:52:22.022Z,0.40
2022-08-09T13:55:00.572Z,0.68
2022-08-09T13:57:39.772Z,0.50
2022-08-09T14:00:19.188Z,0.60
2022-08-09T14:03:03.441Z,0.65
2022-08-09T14:05:57.201Z,0.70
2022-08-09T14:08:26.880Z,0.50
2022-08-09T14:10:55.775Z,0.40
2022-08-09T14:14:14.877Z,0.55
2022-08-09T14:16:17.996Z,0.70
2022-08-09T14:18:49.399Z,0.50
2022-08-09T14:21:23.966Z,0.55
2022-08-09T14:23:56.579Z,0.57
2022-08-09T14:26:31.710Z,0.40
2022-08-09T14:29:08.264Z,0.47
2022-08-09T14:31:54.075Z,0.30
2022-08-09T14:34:31.686Z,0.40
2022-08-09T14:37:07.622Z,0.32
2022-08-09T14:39:47.828Z,0.30
2022-08-09T14:42:30.801Z,0.30
2022-08-09T14:46:39.832Z,0.50
2022-08-09T14:48:00.366Z,0.40
2022-08-09T14:50:34.427Z,0.40
2022-08-09T14:53:11.371Z,0.40
2022-08-09T14:55:47.811Z,0.45
2022-08-09T14:58:18.263Z,0.40
2022-08-09T15:00:48.137Z,0.40
2022-08-09T15:03:20.379Z,0.40
2022-08-09T15:05:51.256Z,0.40
2022-08-09T15:08:23.797Z,0.45
2022-08-09T15:11:01.285Z,0.30
2022-08-09T15:13:56.389Z,0.40
2022-08-09T15:16:20.345Z,0.30
2022-08-09T15:18:49.131Z,0.40
2022-08-09T15:24:13.144Z,0.30
2022-08-09T15:26:46.779Z,0.30
2022-08-09T15:30:55.336Z,0.47
2022-08-09T15:32:01.708Z,0.20
2022-08-09T15:34:34.324Z,0.30
2022-08-09T15:37:04.366Z,0.40
2022-08-09T15:39:44.021Z,0.30
2022-08-09T15:42:19.336Z,0.38
2022-08-09T15:44:47.005Z,0.25
2022-08-09T15:47:21.475Z,0.30
2022-08-09T15:50:03.578Z,0.40
2022-08-09T15:52:37.263Z,0.20
2022-08-09T15:55:08.578Z,0.30
2022-08-09T15:57:44.240Z,0.30
2022-08-09T16:00:25.906Z,0.30
2022-08-09T16:02:56.145Z,0.30
2022-08-09T16:05:47.429Z,0.28
2022-08-09T16:08:30.388Z,0.30
2022-08-09T16:11:03.328Z,0.50
2022-08-09T16:14:02.581Z,0.30
2022-08-09T16:16:26.280Z,0.40
2022-08-09T16:18:55.214Z,0.60
2022-08-09T16:21:26.186Z,0.40
2022-08-09T16:23:58.290Z,0.40
2022-08-09T16:26:34.760Z,0.38
2022-08-09T16:29:15.736Z,0.60
2022-08-09T16:32:18.511Z,0.40
2022-08-09T16:34:53.395Z,0.40
2022-08-09T16:37:54.864Z,0.40
2022-08-09T16:40:13.608Z,0.30
2022-08-09T16:42:45.491Z,0.30
2022-08-09T16:45:19.702Z,0.30
2022-08-09T16:48:42.403Z,0.40
2022-08-09T16:50:39.214Z,0.30
2022-08-09T16:53:06.915Z,0.30
2022-08-09T16:55:57.882Z,0.40
2022-08-09T16:58:24.588Z,0.32
2022-08-09T17:00:52.850Z,0.20
2022-08-09T17:03:22.843Z,0.40
2022-08-09T17:06:06.973Z,0.40
2022-08-09T17:08:42.841Z,0.40
2022-08-09T17:11:15.385Z,0.40
2022-08-09T17:13:45.097Z,0.40
2022-08-09T17:16:12.319Z,0.40
2022-08-09T17:18:39.400Z,0.35
2022-08-09T17:21:06.426Z,0.30
2022-08-09T17:24:21.101Z,0.30
2022-08-09T17:26:31.295Z,0.43
2022-08-09T17:28:59.919Z,0.40
2022-08-09T17:31:26.959Z,0.40
2022-08-09T17:33:57.063Z,0.55
2022-08-09T17:36:25.978Z,0.40
2022-08-09T17:38:57.790Z,0.50
2022-08-09T17:41:38.716Z,0.40
2022-08-09T17:44:47.240Z,0.80
2022-08-09T17:46:55.534Z,0.40
2022-08-09T17:49:23.195Z,0.40
2022-08-09T17:51:51.632Z,0.68
2022-08-09T17:54:19.387Z,0.85
2022-08-09T17:56:52.276Z,0.55
2022-08-09T17:59:19.763Z,0.75
2022-08-09T18:02:07.669Z,0.88
2022-08-09T18:04:34.009Z,0.50
2022-08-09T18:07:07.518Z,0.70
2022-08-09T18:09:41.222Z,0.90
2022-08-09T18:12:17.819Z,0.70
2022-08-09T18:14:54.660Z,0.50
2022-08-09T18:17:27.061Z,0.50
2022-08-09T18:20:59.518Z,0.35
2022-08-09T18:23:05.011Z,0.60
2022-08-09T18:25:50.852Z,0.50
2022-08-09T18:30:39.000Z,0.70
2022-08-09T18:31:14.571Z,0.40
2022-08-09T18:33:44.249Z,0.75
2022-08-09T18:36:25.597Z,0.45
2022-08-09T18:39:02.921Z,0.63
2022-08-09T18:41:34.888Z,0.65
2022-08-09T18:44:12.971Z,0.55
2022-08-09T18:46:47.212Z,0.50
2022-08-09T18:49:20.441Z,0.50
2022-08-09T18:51:55.379Z,0.65
2022-08-09T18:54:29.731Z,0.85
2022-08-09T18:57:05.511Z,0.90
2022-08-09T18:59:49.156Z,0.60
2022-08-09T19:02:19.208Z,0.60
2022-08-09T19:04:47.888Z,0.90
2022-08-09T19:07:31.623Z,0.50
2022-08-09T19:10:17.282Z,0.70
2022-08-09T19:12:50.885Z,0.70
2022-08-09T19:15:27.049Z,0.70
2022-08-09T19:17:56.531Z,0.70
2022-08-09T19:20:26.653Z,1.02
2022-08-09T19:23:01.458Z,0.90
2022-08-09T19:26:01.330Z,0.77
2022-08-09T19:28:16.400Z,0.50
2022-08-09T19:30:44.885Z,0.63
2022-08-09T19:33:19.425Z,0.88
2022-08-09T19:35:58.252Z,0.88
2022-08-09T19:38:27.432Z,0.73
2022-08-09T19:40:59.709Z,0.70
2022-08-09T19:44:01.684Z,0.65
2022-08-09T19:46:16.026Z,0.50
2022-08-09T19:49:02.247Z,0.70
2022-08-09T19:51:31.085Z,0.50
2022-08-09T19:53:59.550Z,0.60
2022-08-09T19:56:29.091Z,0.70
2022-08-09T19:59:18.553Z,0.80
2022-08-09T20:01:52.260Z,0.82
2022-08-09T20:04:37.379Z,0.60
2022-08-09T20:07:12.442Z,0.68
2022-08-09T20:12:29.876Z,0.55
2022-08-09T20:16:31.708Z,0.60
2022-08-09T20:17:54.733Z,0.80
2022-08-09T20:20:22.366Z,0.70
2022-08-09T20:22:51.988Z,0.60
2022-08-09T20:25:23.964Z,0.65
2022-08-09T20:27:53.014Z,0.70
2022-08-09T20:30:23.732Z,0.80
2022-08-09T20:32:52.449Z,0.80
2022-08-09T20:35:21.867Z,0.70
2022-08-09T20:38:23.454Z,0.75
2022-08-09T20:40:36.450Z,0.60
2022-08-09T20:43:19.030Z,0.60
2022-08-09T20:45:59.169Z,1.00
2022-08-09T20:48:39.981Z,0.70
2022-08-09T20:51:19.425Z,0.60
2022-08-09T20:53:46.834Z,0.52
2022-08-09T20:56:20.363Z,0.60
2022-08-09T20:58:57.836Z,0.63
2022-08-09T21:01:34.485Z,0.60
2022-08-09T21:05:55.151Z,0.80
2022-08-09T21:07:13.080Z,0.85
2022-08-09T21:09:56.132Z,0.52
2022-08-09T21:15:14.496Z,0.70
2022-08-09T21:18:20.689Z,0.77
2022-08-09T21:20:30.916Z,0.50
2022-08-09T21:23:00.313Z,0.90
2022-08-09T21:25:54.450Z,0.85
2022-08-09T21:28:34.513Z,0.73
2022-08-09T21:31:13.753Z,0.60
2022-08-09T21:33:51.544Z,0.70
2022-08-09T21:36:26.052Z,0.80
2022-08-09T21:38:56.765Z,0.82
2022-08-09T21:42:03.573Z,0.90
2022-08-09T21:44:32.959Z,0.90
2022-08-09T21:47:05.922Z,0.70
2022-08-09T21:49:40.246Z,0.93
2022-08-09T21:52:17.384Z,0.60
2022-08-09T21:55:04.702Z,0.63
2022-08-09T21:57:38.895Z,0.90
2022-08-09T22:00:35.900Z,0.88
2022-08-09T22:03:12.627Z,0.63
2022-08-09T22:05:47.537Z,0.80
2022-08-09T22:08:18.761Z,0.93
2022-08-09T22:11:48.917Z,0.70
2022-08-09T22:13:36.836Z,0.80
2022-08-09T22:16:09.266Z,0.82
2022-08-09T22:18:53.283Z,0.73
2022-08-09T22:21:27.499Z,1.08
2022-08-09T22:24:16.620Z,1.15
2022-08-09T22:26:43.685Z,1.13
2022-08-09T22:29:18.261Z,1.23
2022-08-09T22:31:56.362Z,1.00
2022-08-09T22:34:27.096Z,1.02
2022-08-09T22:36:59.169Z,1.00
2022-08-09T22:39:57.413Z,1.17
2022-08-09T22:42:21.992Z,0.90
2022-08-09T22:48:04.654Z,1.00
2022-08-09T22:48:16.185Z,0.80
2022-08-09T22:50:29.475Z,0.80
2022-08-09T22:52:58.243Z,1.30
2022-08-09T22:55:39.258Z,0.82
2022-08-09T23:00:58.404Z,0.68
2022-08-09T23:03:31.091Z,1.00
2022-08-09T23:06:14.232Z,1.00
2022-08-09T23:08:44.900Z,1.15
2022-08-09T23:11:20.194Z,1.13
2022-08-09T23:13:52.915Z,1.00
2022-08-09T23:16:22.824Z,0.73
2022-08-09T23:18:49.730Z,0.70
2022-08-09T23:21:23.763Z,1.05
2022-08-09T23:24:05.373Z,1.00
2022-08-09T23:26:35.255Z,0.98
2022-08-09T23:29:02.137Z,1.20
2022-08-09T23:31:29.001Z,1.02
2022-08-09T23:33:55.851Z,0.90
2022-08-09T23:36:22.698Z,0.85
2022-08-09T23:38:49.657Z,1.13
2022-08-09T23:41:28.271Z,1.05
2022-08-09T23:44:01.705Z,1.15
2022-08-09T23:46:30.178Z,0.95
2022-08-09T23:48:58.216Z,1.00
2022-08-09T23:51:26.347Z,1.15
2022-08-09T23:53:55.424Z,1.08
2022-08-09T23:56:53.465Z,1.00
2022-08-09T23:59:18.228Z,0.90
